AirNav   Everest Fuels
 
 1013 users online  

0K6 Dobie's Airport
Inola, Oklahoma, USA

GOING TO INOLA?


FAA INFORMATION EFFECTIVE 10 SEPTEMBER 2020

Location

FAA Identifier: 0K6
Lat/Long: 36-10-45.6500N 095-34-48.9900W
36-10.760833N 095-34.816500W
36.1793472,-95.5802750
(estimated)
Elevation: 610 ft. / 186 m (estimated)
Variation: 06E (1985)
From city: 4 miles NW of INOLA, OK
Time zone: UTC -5 (UTC -6 during Standard Time)
Zip code: 74036

Airport Operations

Airport use: Open to the public
Activation date: 12/1983
Control tower: no
ARTCC: KANSAS CITY CENTER
FSS: MC ALESTER FLIGHT SERVICE STATION
NOTAMs facility: MLC (NOTAM-D service available)
Attendance: IREG
Wind indicator: yes
Segmented circle: no

Airport Communications

CTAF: 122.9
WX AWOS-3 at GCM (8 nm NE): 119.925 (918-343-0184)
WX AWOS-3PT at H71 (12 nm E): 120.1 (918-476-0517)
WX ASOS at TUL (15 nm W): PHONE 918-831-6772

Nearby radio navigation aids

VOR radial/distance  VOR name  Freq  Var
TULr088/10.1TULSA VORTAC114.4008E
OKMr017/32.3OKMULGEE VOR/DME114.9008E

 
NDB name  Hdg/Dist  Freq  Var  ID
WILLIAM POGUE083/27.836206EOWP --- .-- .--.

Airport Services

Runway Information

Runway 17/35

Dimensions: 1575 x 150 ft. / 480 x 46 m
Surface: turf, in fair condition
RUNWAY 17  RUNWAY 35
Traffic pattern: leftright
Obstructions: 20 ft. trees, 80 ft. left and right of centerline4 ft. fence, 75 ft. right of centerline

Airport Ownership and Management from official FAA records

Ownership: Privately-owned
Owner: GERALD HAIL
14157 E. 580 ROAD
INOLA, OK 74036
Phone 918-543-2268
Manager: GREG DIERKS
14157 E. 580 ROAD
INOLA, OK 74036
Phone (918) 697-3263

Airport Operational Statistics

Aircraft based on the field: 9
Single engine airplanes: 2
Helicopters: 6
Ultralights: 1
    
Aircraft operations: 100/year *
100% local general aviation
* for 12-month period ending 20 February 2020

Additional Remarks

FOR CD CTC TULSA APCH AT 918-831-6714/6720.

Instrument Procedures

There are no published instrument procedures at 0K6.

Some nearby airports with instrument procedures:

KGCM - Claremore Regional Airport (8 nm NE)
H71 - Mid-America Industrial Airport (12 nm E)
KTUL - Tulsa International Airport (15 nm W)
H68 - Hefner-Easley Airport (17 nm SE)
KRVS - Richard Lloyd Jones Jr Airport (21 nm SW)
 
Loc | Ops | Rwys | IFR | FBO | Links
Com | Nav | Svcs | Stats | Notes
Area around 0K6 (Dobie's Airport)
 
Road maps at: MapQuest Bing Google
 
Aerial photo
WARNING: Photo may not be current or correct
Aerial photo of 0K6 (Dobie's Airport)
Photo by Brent Butler
Photo taken 16-Jan-2011

Do you have a better or more recent aerial photo of Dobie's Airport that you would like to share? If so, please send us your photo.

 
Sectional chart

 
Airport distance calculator
Flying to Dobie's Airport? Find the distance to fly.

From to 0K6

Sunrise and sunset
Times for 23-Sep-2020
 Local
(UTC-5)
 Zulu
(UTC)
Morning civil twilight06:4711:47
Sunrise07:1312:13
Sunset19:1600:16
Evening civil twilight19:4200:42

Current date and time
Zulu (UTC)  24-Sep-2020 02:30:40
Local (UTC-5)  23-Sep-2020 21:30:40
 
METAR
KGCM 
9nm NE 
240215Z AUTO 00000KT 10SM BKN041 17/13 A3000 RMK AO2
KH71 
12nm E 
240215Z AUTO 12003KT 10SM SCT038 17/17 A2997 RMK AO2
KTUL 
15nm W 
240153Z 26004KT 10SM SCT043 SCT250 21/17 A2998 RMK AO2 SLP145 T02110167
TAF
KTUL 
15nm W 
231929Z 2319/2418 07006KT P6SM BKN030 FM232300 10007KT P6SM SCT040 FM240100 VRB03KT P6SM SKC TEMPO 2408/2412 1/2SM FG BKN004 FM241200 18004KT 1SM BR BKN010
NOTAMs
Click for the latest NOTAMs
NOTAMs are issued by the DoD/FAA and will open in a separate window not controlled by AirNav.

 

 
 

Would you like to see your business listed on this page?

 If your business provides an interesting product or service to pilots, flight crews, aircraft, or users of the Dobie's Airport, you should consider listing it here.  To start the listing process, click on the button below
 
Add a business
 

Other Pages about Dobie's Airport

Update a link
 
Copyright © AirNav, LLC. All rights reserved. Privacy Policy  Contact